Strona główna
METAR-TAF:

METAR-TAF

Lotnisko :

Gioia del Colle, Włochy

Szerokość geograficzna: 40-46N, Długość geograficzna: 016-56E, wysokość: 345 m

Aktualna obserwacja pogody

Raport powstał 48 minut temu, godzina 01:55 UTC
Wiatr 8 kt od zachodnio-północny zachód
Temperatura 8°C
Wilgotność 100%
Ciśnienie 1019 hPa
Widzialność 10 km lub więcej
Brak chmur poniżej 1500 m i brak chmur cumulonimbus

METAR: LIBV 060155Z 30008KT CAVOK 08/08 Q1019 RMK SCT SCT200 VIS MIN 9999 WIND THR32 30008KT WIND THR14 30008KT BLU

czas: 04:43 (02:43 UTC)

Prognoza

Raport powstał 43 minut temu, godzina 02:00 UTC
Prognoza ważna od 06 godzina 03 UTC do 06 godzina 12 UTC
Wiatr 8 kt od północno-północny wschód
Widzialność 10 km lub więcej
Mało chmury na wysokości 1500 ft
Przerywane chmury na wysokości 5000 ft

TAF: LIBV 060200Z 0603/0612 02008KT 9999 FEW015 BKN050

Obserwacja i prognoza pogody dla ponad 4000 lotnisk (raport METAR i TAF).

Dostępne stacje oznaczono żółtymi i czerwonymi punktami na mapie.

Najedź kursorem aby zobaczyć nazwę stacji.

Kliknij aby zobaczyć obserwacje i prognozy pogody.

Aby zmienić mapę: kliknij na zielony przycisk z czarnym krzyżykiem, aby powiększyć; na zielony przycisk z myślnikiem, aby pomniejszyć; na zielone strzałki, aby przejść do map sąsiednich.


METAR-TAF: